Time;durP1;ratioP1;P1;durP2;ratioP2;P2;SDS_P1;SDS_P2;PMS_P1;PMS_P2;Temp;Humidity;BMP_temperature;BMP_pressure;BME280_temperature;BME280_humidity;BME280_pressure;Samples;Min_cycle;Max_cycle;Signal;HPM_P1;HPM_P2
2023/08/13 00:00:25;;;;;;;2.00;1.90;;;;;;;;;;5095097;28;20363;-29
2023/08/13 00:02:51;;;;;;;2.03;1.92;;;;;;;;;;5095318;28;20028;-30
2023/08/13 00:05:17;;;;;;;1.98;1.88;;;;;;;;;;5094823;28;20061;-27
2023/08/13 00:07:44;;;;;;;1.80;1.70;;;;;;;;;;5095233;28;20056;-31
2023/08/13 00:10:10;;;;;;;1.92;1.83;;;;;;;;;;5095225;28;20024;-31
2023/08/13 00:12:36;;;;;;;2.08;1.98;;;;;;;;;;5095133;28;20378;-31
2023/08/13 00:15:02;;;;;;;2.13;2.03;;;;;;;;;;5095185;28;20016;-32
2023/08/13 00:17:28;;;;;;;1.92;1.83;;;;;;;;;;5095428;28;20351;-30
2023/08/13 00:19:54;;;;;;;1.90;1.80;;;;;;;;;;5094828;28;20035;-30
2023/08/13 00:22:21;;;;;;;1.98;1.88;;;;;;;;;;5094748;28;20035;-31
2023/08/13 00:24:47;;;;;;;2.05;1.95;;;;;;;;;;5095186;28;20035;-30
2023/08/13 00:27:14;;;;;;;1.67;1.58;;;;;;;;;;5094753;28;20036;-29
2023/08/13 00:29:40;;;;;;;1.90;1.80;;;;;;;;;;5094683;28;20028;-29
2023/08/13 00:32:06;;;;;;;1.90;1.80;;;;;;;;;;5095203;28;20017;-31
2023/08/13 00:34:32;;;;;;;1.90;1.80;;;;;;;;;;5094676;28;20094;-32
2023/08/13 00:36:58;;;;;;;2.08;1.98;;;;;;;;;;5094956;28;20444;-28
2023/08/13 00:39:25;;;;;;;2.10;2.00;;;;;;;;;;5094915;28;20100;-30
2023/08/13 00:41:52;;;;;;;2.00;1.90;;;;;;;;;;5094813;28;20363;-33
2023/08/13 00:44:19;;;;;;;1.70;1.60;;;;;;;;;;5094878;28;20332;-33
2023/08/13 00:46:45;;;;;;;2.63;2.53;;;;;;;;;;5094825;28;20056;-31
2023/08/13 00:49:11;;;;;;;2.17;2.08;;;;;;;;;;5094471;28;20086;-32
2023/08/13 00:51:37;;;;;;;1.92;1.83;;;;;;;;;;5094504;28;20093;-30
2023/08/13 00:54:04;;;;;;;2.42;2.22;;;;;;;;;;5094442;28;20027;-33
2023/08/13 00:56:30;;;;;;;1.60;1.50;;;;;;;;;;5093550;28;20474;-30
2023/08/13 00:58:56;;;;;;;1.95;1.83;;;;;;;;;;5094712;28;20408;-30
2023/08/13 01:01:22;;;;;;;1.83;1.73;;;;;;;;;;5094995;28;20328;-32
2023/08/13 01:03:48;;;;;;;1.85;1.75;;;;;;;;;;5094113;28;20036;-28
2023/08/13 01:06:26;;;;;;;2.13;2.03;;;;;;;;;;5097009;28;20039;-29
2023/08/13 01:09:17;;;;;;;2.70;2.50;;;;;;;;;;5098618;28;20035;-30
2023/08/13 01:11:43;;;;;;;;;;;;;;;;;;5099379;28;20019;-27
2023/08/13 01:14:29;;;;;;;2.10;2.00;;;;;;;;;;5098176;28;20049;-30
2023/08/13 01:16:56;;;;;;;2.17;2.08;;;;;;;;;;5097928;28;20097;-29
2023/08/13 01:19:23;;;;;;;1.77;1.67;;;;;;;;;;5098430;28;20457;-31
2023/08/13 01:21:49;;;;;;;2.15;2.05;;;;;;;;;;5098794;28;20063;-31
2023/08/13 01:24:15;;;;;;;1.80;1.70;;;;;;;;;;5098595;28;20108;-29
2023/08/13 01:26:49;;;;;;;1.80;1.70;;;;;;;;;;5098573;28;20040;-30
2023/08/13 01:29:30;;;;;;;1.90;1.80;;;;;;;;;;5098513;28;20028;-31
2023/08/13 01:31:58;;;;;;;2.03;1.92;;;;;;;;;;5098159;28;20020;-32
2023/08/13 01:34:25;;;;;;;1.92;1.83;;;;;;;;;;5097870;28;20358;-31
2023/08/13 01:36:51;;;;;;;1.90;1.80;;;;;;;;;;5097848;28;20031;-30
2023/08/13 01:39:18;;;;;;;1.77;1.67;;;;;;;;;;5098290;28;20028;-29
2023/08/13 01:41:45;;;;;;;2.17;2.08;;;;;;;;;;5097753;28;20024;-30
2023/08/13 01:44:11;;;;;;;1.77;1.67;;;;;;;;;;5097885;28;20051;-33
2023/08/13 01:46:38;;;;;;;2.42;2.22;;;;;;;;;;5097899;28;20039;-27
2023/08/13 01:49:04;;;;;;;1.95;1.85;;;;;;;;;;5097772;28;20031;-30
2023/08/13 01:51:30;;;;;;;1.73;1.63;;;;;;;;;;5097823;28;20016;-30
2023/08/13 01:53:57;;;;;;;1.70;1.60;;;;;;;;;;5097436;28;20020;-29
2023/08/13 01:56:23;;;;;;;2.83;1.42;;;;;;;;;;5097780;28;20351;-28
2023/08/13 01:58:49;;;;;;;2.53;2.33;;;;;;;;;;5097418;28;20026;-32
2023/08/13 02:01:15;;;;;;;2.40;2.20;;;;;;;;;;5097897;28;20401;-28
2023/08/13 02:03:41;;;;;;;1.90;1.80;;;;;;;;;;5097037;28;20036;-32
2023/08/13 02:06:07;;;;;;;1.75;1.65;;;;;;;;;;5097547;28;20052;-30
2023/08/13 02:08:33;;;;;;;1.85;1.75;;;;;;;;;;5097415;28;20032;-29
2023/08/13 02:10:59;;;;;;;2.08;1.98;;;;;;;;;;5097188;28;20020;-33
2023/08/13 02:13:25;;;;;;;1.73;1.63;;;;;;;;;;5097043;28;20077;-28
2023/08/13 02:15:51;;;;;;;1.90;1.80;;;;;;;;;;5097347;28;20016;-31
2023/08/13 02:18:17;;;;;;;1.92;1.83;;;;;;;;;;5095816;28;20028;-30
2023/08/13 02:20:43;;;;;;;2.00;1.90;;;;;;;;;;5097018;28;20020;-33
2023/08/13 02:23:09;;;;;;;2.10;2.00;;;;;;;;;;5097143;28;20035;-31
2023/08/13 02:25:36;;;;;;;2.20;2.10;;;;;;;;;;5097146;28;20039;-32
2023/08/13 02:28:03;;;;;;;2.00;1.90;;;;;;;;;;5097284;28;20038;-32
2023/08/13 02:30:29;;;;;;;2.25;2.15;;;;;;;;;;5095868;28;20031;-33
2023/08/13 02:32:55;;;;;;;1.92;1.83;;;;;;;;;;5096936;28;20111;-27
2023/08/13 02:35:21;;;;;;;2.20;2.10;;;;;;;;;;5096950;28;20024;-32
2023/08/13 02:37:47;;;;;;;1.80;1.70;;;;;;;;;;5096915;28;20024;-29
2023/08/13 02:40:13;;;;;;;1.90;1.80;;;;;;;;;;5096647;28;20104;-30
2023/08/13 02:42:39;;;;;;;2.30;2.03;;;;;;;;;;5096650;28;20024;-30
2023/08/13 02:45:05;;;;;;;2.13;1.92;;;;;;;;;;5096762;28;20024;-32
2023/08/13 02:47:33;;;;;;;1.67;1.60;;;;;;;;;;5096358;28;20067;-27
2023/08/13 02:49:59;;;;;;;1.98;1.88;;;;;;;;;;5096671;28;20085;-32
2023/08/13 02:52:25;;;;;;;2.28;2.17;;;;;;;;;;5096289;28;20055;-27
2023/08/13 02:54:51;;;;;;;1.70;1.60;;;;;;;;;;5096308;28;20050;-30
2023/08/13 02:57:17;;;;;;;1.75;1.65;;;;;;;;;;5096115;28;20024;-31
2023/08/13 02:59:43;;;;;;;1.80;1.70;;;;;;;;;;5096210;28;20028;-30
2023/08/13 03:02:09;;;;;;;1.98;1.88;;;;;;;;;;5096109;28;20112;-27
2023/08/13 03:04:35;;;;;;;1.83;1.73;;;;;;;;;;5095980;28;20039;-32
2023/08/13 03:07:02;;;;;;;2.08;1.98;;;;;;;;;;5096336;28;20020;-32
2023/08/13 03:09:28;;;;;;;1.70;1.60;;;;;;;;;;5095951;28;20512;-32
2023/08/13 03:11:54;;;;;;;1.83;1.73;;;;;;;;;;5095928;28;20021;-31
2023/08/13 03:14:20;;;;;;;1.67;1.58;;;;;;;;;;5095992;28;20051;-30
2023/08/13 03:16:46;;;;;;;1.90;1.80;;;;;;;;;;5095900;28;20125;-33
2023/08/13 03:19:12;;;;;;;1.67;1.58;;;;;;;;;;5095895;28;20025;-29
2023/08/13 03:21:38;;;;;;;1.83;1.73;;;;;;;;;;5096052;28;20336;-30
2023/08/13 03:24:05;;;;;;;1.90;1.80;;;;;;;;;;5095733;28;20024;-30
2023/08/13 03:26:31;;;;;;;2.13;2.03;;;;;;;;;;5095982;28;20378;-30
2023/08/13 03:28:57;;;;;;;1.85;1.75;;;;;;;;;;5095329;28;20027;-30
2023/08/13 03:31:23;;;;;;;1.95;1.85;;;;;;;;;;5095632;28;20026;-27
2023/08/13 03:33:49;;;;;;;1.70;1.60;;;;;;;;;;5095782;28;20020;-30
2023/08/13 03:36:16;;;;;;;1.98;1.88;;;;;;;;;;5095802;28;20020;-28
2023/08/13 03:38:42;;;;;;;2.05;1.88;;;;;;;;;;5095499;28;20071;-29
2023/08/13 03:41:09;;;;;;;1.70;1.60;;;;;;;;;;5095461;28;20024;-34
2023/08/13 03:43:35;;;;;;;1.73;1.63;;;;;;;;;;5095322;28;20047;-30
2023/08/13 03:46:04;;;;;;;1.95;1.85;;;;;;;;;;5096190;28;20443;-33
2023/08/13 03:48:30;;;;;;;2.05;1.95;;;;;;;;;;5095247;28;20032;-29
2023/08/13 03:50:56;;;;;;;2.00;1.90;;;;;;;;;;5095288;28;20351;-31
2023/08/13 03:53:24;;;;;;;1.80;1.70;;;;;;;;;;5095105;28;20055;-32
2023/08/13 03:55:51;;;;;;;1.90;1.80;;;;;;;;;;5095225;28;20027;-29
2023/08/13 03:58:17;;;;;;;1.80;1.70;;;;;;;;;;5095703;28;20398;-30
2023/08/13 04:00:43;;;;;;;1.88;1.77;;;;;;;;;;5095184;28;20104;-31
2023/08/13 04:03:09;;;;;;;1.85;1.75;;;;;;;;;;5095067;28;20107;-28
2023/08/13 04:05:36;;;;;;;1.92;1.83;;;;;;;;;;5095337;28;20027;-30
2023/08/13 04:08:02;;;;;;;1.48;1.42;;;;;;;;;;5095776;28;20028;-29
2023/08/13 04:10:29;;;;;;;2.45;2.25;;;;;;;;;;5094978;28;20031;-32
2023/08/13 04:13:00;;;;;;;1.70;1.60;;;;;;;;;;5095138;28;20028;-28
2023/08/13 04:15:26;;;;;;;1.88;1.77;;;;;;;;;;5095284;28;20406;-33
2023/08/13 04:17:52;;;;;;;1.23;1.23;;;;;;;;;;5094828;28;20107;-26
2023/08/13 04:20:18;;;;;;;1.90;1.80;;;;;;;;;;5095392;28;20397;-31
2023/08/13 04:22:45;;;;;;;3.17;2.97;;;;;;;;;;5095035;28;20031;-30
2023/08/13 04:25:11;;;;;;;2.70;1.95;;;;;;;;;;5094839;28;20100;-30
2023/08/13 04:27:37;;;;;;;1.92;1.83;;;;;;;;;;5094981;28;20356;-32
2023/08/13 04:30:04;;;;;;;2.08;1.98;;;;;;;;;;5094775;28;20021;-32
2023/08/13 04:32:32;;;;;;;1.80;1.70;;;;;;;;;;5095034;28;20039;-31
2023/08/13 04:34:58;;;;;;;1.77;1.67;;;;;;;;;;5094730;28;20012;-31
2023/08/13 04:37:24;;;;;;;1.55;1.45;;;;;;;;;;5094960;28;20458;-30
2023/08/13 04:39:50;;;;;;;1.90;1.80;;;;;;;;;;5094684;28;20046;-30
2023/08/13 04:42:16;;;;;;;2.00;1.90;;;;;;;;;;5098561;28;20363;-30
2023/08/13 04:44:42;;;;;;;1.95;1.80;;;;;;;;;;5098857;28;20028;-32
2023/08/13 04:47:08;;;;;;;1.75;1.65;;;;;;;;;;5099079;28;20024;-29
2023/08/13 04:49:34;;;;;;;2.00;1.90;;;;;;;;;;5098688;28;20398;-31
2023/08/13 04:52:01;;;;;;;1.50;1.40;;;;;;;;;;5098934;28;20024;-30
2023/08/13 04:54:27;;;;;;;1.90;1.80;;;;;;;;;;5098721;28;20031;-32
2023/08/13 04:56:53;;;;;;;1.70;1.60;;;;;;;;;;5098932;28;20020;-30
2023/08/13 04:59:19;;;;;;;1.50;1.50;;;;;;;;;;5098848;28;20443;-32
2023/08/13 05:01:45;;;;;;;1.90;1.80;;;;;;;;;;5098827;28;20107;-29
2023/08/13 05:04:12;;;;;;;1.77;1.67;;;;;;;;;;5098780;28;20498;-30
2023/08/13 05:06:38;;;;;;;1.50;1.50;;;;;;;;;;5098735;28;20032;-31
2023/08/13 05:09:04;;;;;;;1.80;1.70;;;;;;;;;;5098643;28;20039;-29
2023/08/13 05:11:30;;;;;;;1.60;1.50;;;;;;;;;;5098909;28;20024;-32
2023/08/13 05:13:57;;;;;;;1.90;1.80;;;;;;;;;;5098520;28;20024;-29
2023/08/13 05:16:23;;;;;;;1.90;1.77;;;;;;;;;;5098309;28;20024;-31
2023/08/13 05:18:49;;;;;;;1.80;1.70;;;;;;;;;;5098244;28;20043;-30
2023/08/13 05:21:15;;;;;;;1.50;1.40;;;;;;;;;;5098177;28;20024;-28
2023/08/13 05:23:41;;;;;;;1.83;1.73;;;;;;;;;;5098001;28;20458;-30
2023/08/13 05:26:07;;;;;;;1.60;1.50;;;;;;;;;;5098103;28;20059;-31
2023/08/13 05:28:33;;;;;;;1.70;1.60;;;;;;;;;;5097906;28;20507;-29
2023/08/13 05:31:03;;;;;;;1.70;1.60;;;;;;;;;;5097965;28;20048;-30
2023/08/13 05:33:29;;;;;;;1.80;1.70;;;;;;;;;;5098019;28;20016;-32
2023/08/13 05:35:55;;;;;;;1.42;1.42;;;;;;;;;;5097918;28;20039;-27
2023/08/13 05:38:21;;;;;;;1.58;1.48;;;;;;;;;;5097830;28;20024;-30
2023/08/13 05:40:47;;;;;;;3.08;1.90;;;;;;;;;;5098084;28;20031;-30
2023/08/13 05:43:14;;;;;;;1.55;1.45;;;;;;;;;;5097758;28;20024;-31
2023/08/13 05:45:41;;;;;;;1.60;1.58;;;;;;;;;;5097720;28;20097;-32
2023/08/13 05:48:08;;;;;;;1.48;1.42;;;;;;;;;;5097570;28;20024;-29
2023/08/13 05:50:34;;;;;;;1.73;1.63;;;;;;;;;;5098157;28;20332;-31
2023/08/13 05:53:00;;;;;;;1.67;1.58;;;;;;;;;;5097655;28;20031;-30
2023/08/13 05:55:26;;;;;;;1.73;1.63;;;;;;;;;;5097532;28;20019;-32
2023/08/13 05:57:52;;;;;;;1.73;1.63;;;;;;;;;;5097888;28;20016;-32
2023/08/13 06:00:18;;;;;;;1.70;1.60;;;;;;;;;;5097690;28;20378;-32
2023/08/13 06:02:44;;;;;;;2.05;1.95;;;;;;;;;;5097324;28;20024;-32
2023/08/13 06:05:11;;;;;;;1.52;1.42;;;;;;;;;;5097221;28;20040;-30
2023/08/13 06:07:37;;;;;;;1.65;1.55;;;;;;;;;;5097833;28;20039;-31
2023/08/13 06:10:04;;;;;;;1.60;1.50;;;;;;;;;;5097706;28;20024;-30
2023/08/13 06:12:30;;;;;;;1.25;1.25;;;;;;;;;;5097099;28;20058;-32
2023/08/13 06:14:57;;;;;;;1.73;1.63;;;;;;;;;;5097431;28;20435;-31
2023/08/13 06:17:23;;;;;;;1.80;1.70;;;;;;;;;;5097360;28;20028;-28
2023/08/13 06:19:49;;;;;;;1.42;1.33;;;;;;;;;;5097060;28;20381;-30
2023/08/13 06:22:15;;;;;;;1.58;1.48;;;;;;;;;;5096941;28;20024;-28
2023/08/13 06:24:42;;;;;;;1.73;1.63;;;;;;;;;;5097511;28;20035;-28
2023/08/13 06:27:08;;;;;;;1.90;1.80;;;;;;;;;;5097189;28;20120;-31
2023/08/13 06:29:34;;;;;;;1.70;1.60;;;;;;;;;;5097035;28;20110;-31
2023/08/13 06:32:00;;;;;;;1.40;1.40;;;;;;;;;;5096750;28;20035;-31
2023/08/13 06:34:26;;;;;;;1.85;1.75;;;;;;;;;;5096792;28;20024;-28
2023/08/13 06:36:53;;;;;;;1.88;1.77;;;;;;;;;;5096737;28;20024;-31
2023/08/13 06:39:21;;;;;;;1.67;1.58;;;;;;;;;;5096944;28;20032;-31
2023/08/13 06:41:47;;;;;;;1.50;1.40;;;;;;;;;;5096940;28;20043;-27
2023/08/13 06:44:18;;;;;;;1.35;1.27;;;;;;;;;;5096506;28;20034;-32
2023/08/13 06:46:44;;;;;;;1.70;1.60;;;;;;;;;;5096931;28;20058;-30
2023/08/13 06:49:10;;;;;;;1.77;1.67;;;;;;;;;;5096407;28;20031;-32
2023/08/13 06:51:36;;;;;;;1.63;1.52;;;;;;;;;;5097012;28;20089;-30
2023/08/13 06:54:03;;;;;;;1.63;1.52;;;;;;;;;;5096593;28;20016;-27
2023/08/13 06:56:30;;;;;;;1.60;1.50;;;;;;;;;;5095519;28;20424;-30
2023/08/13 06:58:56;;;;;;;1.83;1.70;;;;;;;;;;5096601;28;20055;-31
2023/08/13 07:01:23;;;;;;;1.70;1.60;;;;;;;;;;5096243;28;20028;-28
2023/08/13 07:03:49;;;;;;;2.03;1.92;;;;;;;;;;5095347;28;20136;-32
2023/08/13 07:06:15;;;;;;;2.10;2.00;;;;;;;;;;5096439;28;20059;-28
2023/08/13 07:08:41;;;;;;;1.63;1.52;;;;;;;;;;5096077;28;20443;-31
2023/08/13 07:11:07;;;;;;;1.92;1.45;;;;;;;;;;5095999;28;20035;-28
2023/08/13 07:13:33;;;;;;;1.90;1.80;;;;;;;;;;5096260;28;20410;-26
2023/08/13 07:15:59;;;;;;;1.60;1.50;;;;;;;;;;5096249;28;20085;-28
2023/08/13 07:18:26;;;;;;;1.38;1.38;;;;;;;;;;5096169;28;20362;-32
2023/08/13 07:20:52;;;;;;;1.50;1.40;;;;;;;;;;5095887;28;20055;-32
2023/08/13 07:23:18;;;;;;;1.77;1.67;;;;;;;;;;5095763;28;20061;-33
2023/08/13 07:25:44;;;;;;;1.73;1.63;;;;;;;;;;5095754;28;20024;-30
2023/08/13 07:28:10;;;;;;;1.40;1.30;;;;;;;;;;5095953;28;20028;-30
2023/08/13 07:30:36;;;;;;;1.52;1.42;;;;;;;;;;5095949;28;20024;-31
2023/08/13 07:33:03;;;;;;;1.70;1.60;;;;;;;;;;5095596;28;20107;-30
2023/08/13 07:35:29;;;;;;;1.35;1.33;;;;;;;;;;5095590;28;20055;-27
2023/08/13 07:37:55;;;;;;;1.50;1.40;;;;;;;;;;5095579;28;20031;-32
2023/08/13 07:40:21;;;;;;;1.65;1.55;;;;;;;;;;5095499;28;20355;-28
2023/08/13 07:42:47;;;;;;;1.65;1.55;;;;;;;;;;5095438;28;20046;-31
2023/08/13 07:45:13;;;;;;;2.20;1.95;;;;;;;;;;5095964;28;20449;-31
2023/08/13 07:47:39;;;;;;;1.40;1.30;;;;;;;;;;5095395;28;20443;-32
2023/08/13 07:50:07;;;;;;;1.67;1.58;;;;;;;;;;5095231;28;20034;-31
2023/08/13 07:52:34;;;;;;;2.17;1.92;;;;;;;;;;5095535;28;20051;-31
2023/08/13 07:55:00;;;;;;;1.70;1.60;;;;;;;;;;5095245;28;20035;-29
2023/08/13 07:57:26;;;;;;;1.80;1.70;;;;;;;;;;5095215;28;20024;-28
2023/08/13 07:59:53;;;;;;;1.85;1.75;;;;;;;;;;5095229;28;20103;-27
2023/08/13 08:02:19;;;;;;;1.85;1.75;;;;;;;;;;5095638;28;20020;-32
2023/08/13 08:04:47;;;;;;;1.55;1.55;;;;;;;;;;5094975;28;20379;-30
2023/08/13 08:07:13;;;;;;;1.50;1.50;;;;;;;;;;5095099;28;20020;-31
2023/08/13 08:09:39;;;;;;;1.60;1.50;;;;;;;;;;5095251;28;20052;-32
2023/08/13 08:12:06;;;;;;;1.67;1.58;;;;;;;;;;5095196;28;20098;-31
2023/08/13 08:14:32;;;;;;;1.67;1.58;;;;;;;;;;5094837;28;20042;-29
2023/08/13 08:17:04;;;;;;;1.77;1.67;;;;;;;;;;5094458;28;20016;-31
2023/08/13 08:19:31;;;;;;;1.63;1.52;;;;;;;;;;5094951;28;20036;-31
2023/08/13 08:21:58;;;;;;;2.00;1.90;;;;;;;;;;5094786;28;20481;-28
2023/08/13 08:24:24;;;;;;;1.50;1.42;;;;;;;;;;5094825;28;20446;-29
2023/08/13 08:26:51;;;;;;;1.85;1.75;;;;;;;;;;5094822;28;20051;-30
2023/08/13 08:29:17;;;;;;;1.80;1.70;;;;;;;;;;5095010;28;20385;-29
2023/08/13 08:31:43;;;;;;;1.80;1.70;;;;;;;;;;5095081;28;20028;-30
2023/08/13 08:34:09;;;;;;;1.40;1.40;;;;;;;;;;5094679;28;20054;-29
2023/08/13 08:36:35;;;;;;;1.75;1.63;;;;;;;;;;5095000;28;20020;-31
2023/08/13 08:39:03;;;;;;;2.85;1.98;;;;;;;;;;5094741;28;20081;-32
2023/08/13 08:41:31;;;;;;;1.90;1.80;;;;;;;;;;5094977;28;20028;-29
2023/08/13 08:43:59;;;;;;;1.45;1.38;;;;;;;;;;5094606;28;20074;-30
2023/08/13 08:46:27;;;;;;;1.90;1.80;;;;;;;;;;5094649;28;20031;-34
2023/08/13 08:48:54;;;;;;;1.70;1.60;;;;;;;;;;5094591;28;20031;-29
2023/08/13 08:51:22;;;;;;;1.55;1.55;;;;;;;;;;5094514;28;20020;-28
2023/08/13 08:53:50;;;;;;;1.67;1.58;;;;;;;;;;5095080;28;20012;-32
2023/08/13 08:56:16;;;;;;;1.52;1.42;;;;;;;;;;5094856;28;20054;-30
2023/08/13 08:58:42;;;;;;;1.50;1.50;;;;;;;;;;5094548;28;20028;-31
2023/08/13 09:01:08;;;;;;;1.70;1.60;;;;;;;;;;5094533;28;20024;-30
2023/08/13 09:03:34;;;;;;;1.70;1.60;;;;;;;;;;5094236;28;20082;-31
2023/08/13 09:06:01;;;;;;;1.90;1.80;;;;;;;;;;5094466;28;20028;-32
2023/08/13 09:08:27;;;;;;;1.45;1.42;;;;;;;;;;5094890;28;20028;-29
2023/08/13 09:10:53;;;;;;;1.65;1.55;;;;;;;;;;5094729;28;20032;-31
2023/08/13 09:13:19;;;;;;;1.60;1.50;;;;;;;;;;5094573;28;20024;-28
2023/08/13 09:15:48;;;;;;;1.80;1.70;;;;;;;;;;5094883;28;20443;-32
2023/08/13 09:18:14;;;;;;;1.70;1.60;;;;;;;;;;5094353;28;20447;-28
2023/08/13 09:20:47;;;;;;;1.75;1.65;;;;;;;;;;5094595;28;20047;-32
2023/08/13 09:23:23;;;;;;;1.95;1.85;;;;;;;;;;5094352;28;20111;-28
2023/08/13 09:25:53;;;;;;;2.10;2.00;;;;;;;;;;5094223;28;20039;-28
2023/08/13 09:28:19;;;;;;;1.85;1.60;;;;;;;;;;5098132;28;20031;-31
2023/08/13 09:30:45;;;;;;;1.70;1.60;;;;;;;;;;5098026;28;20027;-30
2023/08/13 09:33:13;;;;;;;1.67;1.65;;;;;;;;;;5098190;28;20343;-30
2023/08/13 09:35:40;;;;;;;1.85;1.75;;;;;;;;;;5098198;28;20332;-32
2023/08/13 09:38:06;;;;;;;1.80;1.70;;;;;;;;;;5097889;28;20112;-33
2023/08/13 09:40:32;;;;;;;1.67;1.58;;;;;;;;;;5097882;28;20023;-33
2023/08/13 09:42:59;;;;;;;1.88;1.77;;;;;;;;;;5097747;28;20016;-31
2023/08/13 09:45:30;;;;;;;1.65;1.55;;;;;;;;;;5097753;28;20043;-31
2023/08/13 09:47:59;;;;;;;2.00;1.90;;;;;;;;;;5097652;28;20081;-29
2023/08/13 09:50:26;;;;;;;1.67;1.58;;;;;;;;;;5097618;28;20027;-31
2023/08/13 09:52:53;;;;;;;1.95;1.85;;;;;;;;;;5097536;28;20512;-30
2023/08/13 09:55:21;;;;;;;2.05;1.90;;;;;;;;;;5097766;28;20035;-31
2023/08/13 09:57:49;;;;;;;1.70;1.60;;;;;;;;;;5097785;28;20027;-28
2023/08/13 10:00:15;;;;;;;1.83;1.73;;;;;;;;;;5097471;28;20028;-30
2023/08/13 10:02:41;;;;;;;2.00;1.90;;;;;;;;;;5097327;28;20035;-27
2023/08/13 10:05:08;;;;;;;1.85;1.75;;;;;;;;;;5097233;28;20359;-28
2023/08/13 10:07:36;;;;;;;1.75;1.65;;;;;;;;;;5097587;28;20035;-30
2023/08/13 10:10:03;;;;;;;1.67;1.60;;;;;;;;;;5097539;28;20024;-30
2023/08/13 10:12:30;;;;;;;1.95;1.85;;;;;;;;;;5097103;28;20426;-32
2023/08/13 10:14:56;;;;;;;1.83;1.73;;;;;;;;;;5097433;28;20032;-32
2023/08/13 10:17:26;;;;;;;1.33;1.33;;;;;;;;;;5097112;28;20020;-30
2023/08/13 10:19:54;;;;;;;2.00;1.90;;;;;;;;;;5097692;28;20039;-33
2023/08/13 10:22:35;;;;;;;2.00;1.90;;;;;;;;;;5096964;28;20036;-32
2023/08/13 10:25:01;;;;;;;2.10;2.00;;;;;;;;;;5097291;28;20397;-32
2023/08/13 10:27:28;;;;;;;1.80;1.70;;;;;;;;;;5097429;28;20439;-34
2023/08/13 10:30:09;;;;;;;1.60;1.50;;;;;;;;;;5096808;28;20036;-32
2023/08/13 10:32:53;;;;;;;2.05;1.95;;;;;;;;;;5097091;28;20411;-31
2023/08/13 10:35:24;;;;;;;1.95;1.85;;;;;;;;;;5096741;28;20063;-32
2023/08/13 10:37:51;;;;;;;2.07;1.97;;;;;;;;;;5096613;28;20085;-31
2023/08/13 10:40:18;;;;;;;1.80;1.70;;;;;;;;;;5096509;28;20020;-30
2023/08/13 10:42:44;;;;;;;1.92;1.83;;;;;;;;;;5096877;28;20400;-32
2023/08/13 10:45:13;;;;;;;1.70;1.60;;;;;;;;;;5096653;28;20028;-31
2023/08/13 10:47:48;;;;;;;2.20;2.10;;;;;;;;;;5096488;28;20447;-30
2023/08/13 10:50:28;;;;;;;1.80;1.70;;;;;;;;;;5096388;28;20082;-30
2023/08/13 10:52:56;;;;;;;1.98;1.88;;;;;;;;;;5096434;28;20027;-29
2023/08/13 10:55:22;;;;;;;1.90;1.80;;;;;;;;;;5096383;28;20028;-32
2023/08/13 10:57:50;;;;;;;1.92;1.83;;;;;;;;;;5096321;28;20020;-31
2023/08/13 11:00:16;;;;;;;1.90;1.80;;;;;;;;;;5095330;28;20513;-31
2023/08/13 11:02:44;;;;;;;2.55;2.45;;;;;;;;;;5096200;28;20421;-30
2023/08/13 11:05:10;;;;;;;2.85;1.90;;;;;;;;;;5096015;28;20104;-28
2023/08/13 11:07:37;;;;;;;2.10;2.00;;;;;;;;;;5096126;28;20031;-30
2023/08/13 11:10:04;;;;;;;2.00;1.90;;;;;;;;;;5096044;28;20123;-30
2023/08/13 11:12:31;;;;;;;1.98;1.88;;;;;;;;;;5095993;28;20396;-30
2023/08/13 11:15:00;;;;;;;2.20;2.10;;;;;;;;;;5096060;28;20024;-30
2023/08/13 11:17:26;;;;;;;2.47;2.28;;;;;;;;;;5096447;28;20020;-30
2023/08/13 11:19:56;;;;;;;2.28;2.17;;;;;;;;;;5096212;28;20028;-26
2023/08/13 11:22:24;;;;;;;2.40;2.30;;;;;;;;;;5096141;28;20024;-29
2023/08/13 11:24:50;;;;;;;2.33;2.22;;;;;;;;;;5096534;28;20048;-28
2023/08/13 11:27:16;;;;;;;2.15;2.05;;;;;;;;;;5095790;28;20336;-29
2023/08/13 11:29:42;;;;;;;2.17;2.08;;;;;;;;;;5096220;28;20107;-30
2023/08/13 11:32:09;;;;;;;1.70;1.60;;;;;;;;;;5095856;28;20024;-30
2023/08/13 11:34:35;;;;;;;2.42;2.22;;;;;;;;;;5095570;28;20112;-31
2023/08/13 11:37:01;;;;;;;1.83;1.73;;;;;;;;;;5094665;28;20047;-30
2023/08/13 11:39:27;;;;;;;2.15;2.03;;;;;;;;;;5096310;28;20455;-30
2023/08/13 11:41:53;;;;;;;2.28;2.08;;;;;;;;;;5095422;28;20397;-31
2023/08/13 11:44:20;;;;;;;2.03;1.92;;;;;;;;;;5095705;28;20020;-33
2023/08/13 11:46:53;;;;;;;2.20;2.10;;;;;;;;;;5095423;28;20032;-31
2023/08/13 11:49:19;;;;;;;2.53;2.33;;;;;;;;;;5095658;28;20024;-29
2023/08/13 11:51:45;;;;;;;2.30;2.20;;;;;;;;;;5095598;28;20027;-32
2023/08/13 11:54:11;;;;;;;2.20;2.10;;;;;;;;;;5095249;28;20027;-31
2023/08/13 11:56:38;;;;;;;1.95;1.85;;;;;;;;;;5095504;28;20020;-32
2023/08/13 11:59:06;;;;;;;2.30;2.20;;;;;;;;;;5095200;28;20107;-30
2023/08/13 12:01:34;;;;;;;2.50;2.30;;;;;;;;;;5094223;28;20031;-31
2023/08/13 12:04:03;;;;;;;2.10;2.00;;;;;;;;;;5094941;28;20370;-30
2023/08/13 12:06:29;;;;;;;2.42;2.33;;;;;;;;;;5095099;28;20020;-31
2023/08/13 12:08:56;;;;;;;2.42;2.28;;;;;;;;;;5095315;28;20093;-31
2023/08/13 12:11:22;;;;;;;2.25;2.15;;;;;;;;;;5095306;28;20056;-29
2023/08/13 12:13:48;;;;;;;2.45;2.25;;;;;;;;;;5094932;28;20024;-30
2023/08/13 12:16:15;;;;;;;2.08;1.98;;;;;;;;;;5095218;28;20041;-30
2023/08/13 12:18:41;;;;;;;2.22;2.13;;;;;;;;;;5095657;28;20093;-29
2023/08/13 12:21:07;;;;;;;2.20;2.10;;;;;;;;;;5094939;28;20024;-29
2023/08/13 12:23:33;;;;;;;2.40;2.30;;;;;;;;;;5094822;28;20095;-29
2023/08/13 12:26:01;;;;;;;2.65;2.47;;;;;;;;;;5095155;28;20024;-28
2023/08/13 12:28:28;;;;;;;2.50;2.35;;;;;;;;;;5095007;28;20032;-27
2023/08/13 12:30:54;;;;;;;2.35;2.25;;;;;;;;;;5095354;28;20020;-30
2023/08/13 12:33:20;;;;;;;2.00;1.90;;;;;;;;;;5094635;28;20035;-27
2023/08/13 12:35:46;;;;;;;2.00;1.90;;;;;;;;;;5094748;28;20020;-31
2023/08/13 12:38:12;;;;;;;2.25;2.08;;;;;;;;;;5094741;28;20035;-27
2023/08/13 12:40:38;;;;;;;2.30;2.20;;;;;;;;;;5094950;28;20016;-32
2023/08/13 12:43:04;;;;;;;2.22;2.13;;;;;;;;;;5093670;28;20528;-30
2023/08/13 12:45:30;;;;;;;2.58;2.47;;;;;;;;;;5094920;28;20085;-32
2023/08/13 12:47:57;;;;;;;2.22;1.90;;;;;;;;;;5094588;28;20024;-32
2023/08/13 12:50:23;;;;;;;2.28;2.17;;;;;;;;;;5094918;28;20107;-30
2023/08/13 12:52:49;;;;;;;2.38;2.28;;;;;;;;;;5095078;28;20044;-30
2023/08/13 12:55:16;;;;;;;2.47;2.38;;;;;;;;;;5094535;28;20070;-29
2023/08/13 12:57:42;;;;;;;3.08;2.22;;;;;;;;;;5094835;28;20052;-30
2023/08/13 13:00:09;;;;;;;3.28;2.40;;;;;;;;;;5094523;28;20035;-32
2023/08/13 13:02:36;;;;;;;2.35;2.25;;;;;;;;;;5097424;28;20061;-30
2023/08/13 13:05:02;;;;;;;2.40;2.30;;;;;;;;;;5098389;28;20526;-29
2023/08/13 13:07:28;;;;;;;2.10;2.00;;;;;;;;;;5098487;28;20111;-33
2023/08/13 13:09:54;;;;;;;2.28;2.17;;;;;;;;;;5098658;28;20024;-31
2023/08/13 13:12:22;;;;;;;2.25;2.10;;;;;;;;;;5098311;28;20028;-30
2023/08/13 13:14:48;;;;;;;2.00;1.90;;;;;;;;;;5098304;28;20046;-32
2023/08/13 13:17:15;;;;;;;2.55;2.08;;;;;;;;;;5098303;28;20451;-30
2023/08/13 13:19:42;;;;;;;2.35;2.22;;;;;;;;;;5098265;28;20027;-29
2023/08/13 13:22:08;;;;;;;2.05;1.95;;;;;;;;;;5098136;28;20043;-33
2023/08/13 13:24:35;;;;;;;2.35;2.25;;;;;;;;;;5098470;28;20031;-32
2023/08/13 13:27:01;;;;;;;2.83;2.50;;;;;;;;;;5097163;28;20459;-31
2023/08/13 13:29:27;;;;;;;2.53;2.42;;;;;;;;;;5098244;28;20024;-34
2023/08/13 13:31:53;;;;;;;2.47;2.35;;;;;;;;;;5097936;28;20089;-32
2023/08/13 13:34:19;;;;;;;2.53;2.33;;;;;;;;;;5098235;28;20390;-31
2023/08/13 13:36:45;;;;;;;2.30;2.20;;;;;;;;;;5097930;28;20055;-30
2023/08/13 13:39:11;;;;;;;2.30;2.20;;;;;;;;;;5097846;28;20465;-30
2023/08/13 13:41:37;;;;;;;1.92;1.83;;;;;;;;;;5098135;28;20043;-30
2023/08/13 13:44:04;;;;;;;2.20;2.10;;;;;;;;;;5097783;28;20035;-29
2023/08/13 13:46:30;;;;;;;2.00;1.90;;;;;;;;;;5097712;28;20117;-31
2023/08/13 13:48:56;;;;;;;2.05;1.95;;;;;;;;;;5097569;28;20020;-28
2023/08/13 13:51:22;;;;;;;2.60;2.50;;;;;;;;;;5097906;28;20024;-30
2023/08/13 13:53:48;;;;;;;2.10;2.00;;;;;;;;;;5097603;28;20028;-32
2023/08/13 13:56:15;;;;;;;2.40;2.30;;;;;;;;;;5098383;28;20028;-32
2023/08/13 13:58:41;;;;;;;2.40;2.30;;;;;;;;;;5097755;28;20023;-30
2023/08/13 14:01:07;;;;;;;2.08;1.98;;;;;;;;;;5097708;28;20081;-31
2023/08/13 14:03:33;;;;;;;2.42;2.30;;;;;;;;;;5097314;28;20047;-31
2023/08/13 14:05:59;;;;;;;2.15;2.05;;;;;;;;;;5097967;28;20024;-30
2023/08/13 14:08:25;;;;;;;1.95;1.85;;;;;;;;;;5097510;28;20097;-30
2023/08/13 14:10:51;;;;;;;2.28;2.17;;;;;;;;;;5097299;28;20016;-29
2023/08/13 14:13:18;;;;;;;2.67;2.58;;;;;;;;;;5095750;28;20075;-33
2023/08/13 14:15:44;;;;;;;3.00;2.80;;;;;;;;;;5097504;28;20362;-28
2023/08/13 14:18:10;;;;;;;2.30;2.20;;;;;;;;;;5098023;28;20099;-29
2023/08/13 14:20:37;;;;;;;1.98;1.88;;;;;;;;;;5097115;28;20414;-30
2023/08/13 14:23:03;;;;;;;2.53;2.40;;;;;;;;;;5097276;28;20347;-31
2023/08/13 14:25:29;;;;;;;2.25;2.15;;;;;;;;;;5097050;28;20024;-29
2023/08/13 14:27:55;;;;;;;2.65;2.45;;;;;;;;;;5097247;28;20047;-29
2023/08/13 14:30:21;;;;;;;2.30;2.10;;;;;;;;;;5096832;28;20028;-28
2023/08/13 14:32:47;;;;;;;2.40;2.30;;;;;;;;;;5096777;28;20020;-33
2023/08/13 14:35:13;;;;;;;2.35;2.25;;;;;;;;;;5096863;28;20028;-30
2023/08/13 14:37:39;;;;;;;2.30;2.20;;;;;;;;;;5097009;28;20035;-32
2023/08/13 14:40:06;;;;;;;2.63;2.53;;;;;;;;;;5095775;28;20039;-31